Terminal Aerodrome Forecast
Issued by NWS La Crosse, WI

Current Version | Previous Version | Text Only | Print | Product List | Glossary On
Versions: 1 2 3 4 5 6 7 8 9 10 11 12 13 14 15 16 17 18 19
000
FTUS43 KARX 191204 AAA
TAFLSE
TAF AMD
KLSE 191204Z 1912/2012 15003KT 1/4SM FG OVC002
     FM191400 00000KT 2SM BR SCT008
     FM191500 VRB03KT P6SM SKC=

USA.gov is the U.S. government's official web portal to all federal, state and local government web resources and services.